Time;durP1;ratioP1;P1;durP2;ratioP2;P2;SDS_P1;SDS_P2;PMS_P1;PMS_P2;Temp;Humidity;BMP_temperature;BMP_pressure;BME280_temperature;BME280_humidity;BME280_pressure;Samples;Min_cycle;Max_cycle;Signal;HPM_P1;HPM_P2
2022/10/26 00:02:14;;;;;;;16.40;5.57;;;;;;;10.32;100.00;101178.72;5001369;28;20034;-77
2022/10/26 00:04:40;;;;;;;13.13;6.35;;;;;;;10.41;100.00;101179.63;4992176;28;20054;-77
2022/10/26 00:07:05;;;;;;;19.25;5.75;;;;;;;10.32;100.00;101176.97;5005360;28;20037;-76
2022/10/26 00:09:31;;;;;;;13.57;5.80;;;;;;;10.36;100.00;101181.84;4982823;28;20515;-78
2022/10/26 00:11:56;;;;;;;20.40;5.85;;;;;;;10.42;100.00;101181.28;5002591;28;20380;-76
2022/10/26 00:14:22;;;;;;;15.20;5.20;;;;;;;10.37;100.00;101173.09;5001669;28;20049;-76
2022/10/26 00:16:47;;;;;;;17.35;5.53;;;;;;;10.34;100.00;101176.81;5005375;28;20022;-76
2022/10/26 00:19:13;;;;;;;16.58;5.55;;;;;;;10.42;100.00;101170.91;5002694;28;20089;-77
2022/10/26 00:21:38;;;;;;;13.02;5.30;;;;;;;10.41;100.00;101167.47;4986448;28;20035;-77
2022/10/26 00:24:04;;;;;;;11.13;5.90;;;;;;;10.44;100.00;101161.19;4999352;28;20057;-78
2022/10/26 00:26:29;;;;;;;15.55;4.30;;;;;;;10.57;100.00;101164.25;4993124;28;20088;-79
2022/10/26 00:28:56;;;;;;;13.75;4.47;;;;;;;10.56;100.00;101159.22;4985120;28;20037;-76
2022/10/26 00:31:23;;;;;;;10.43;4.10;;;;;;;10.60;100.00;101161.34;4985614;28;20121;-76
2022/10/26 00:33:55;;;;;;;8.40;3.55;;;;;;;10.61;100.00;101160.41;5001281;28;20030;-81
2022/10/26 00:36:22;;;;;;;14.00;5.65;;;;;;;10.61;100.00;101154.41;5003025;28;20033;-76
2022/10/26 00:38:49;;;;;;;11.73;3.55;;;;;;;10.61;100.00;101157.81;4986198;28;20022;-80
2022/10/26 00:41:23;;;;;;;10.90;3.50;;;;;;;10.77;100.00;101154.53;4982855;28;20034;-75
2022/10/26 00:43:51;;;;;;;8.13;3.58;;;;;;;10.74;100.00;101147.06;5003066;28;20073;-77
2022/10/26 00:46:26;;;;;;;11.63;3.53;;;;;;;10.78;100.00;101145.00;4994679;28;20054;-78
2022/10/26 00:48:57;;;;;;;14.27;3.80;;;;;;;10.79;100.00;101152.59;4989001;28;20033;-85
2022/10/26 00:51:31;;;;;;;10.98;3.78;;;;;;;10.76;100.00;101150.31;4989889;28;20034;-79
2022/10/26 00:54:01;;;;;;;10.45;4.20;;;;;;;10.68;100.00;101143.28;4987827;28;20041;-82
2022/10/26 00:56:27;;;;;;;12.60;3.75;;;;;;;10.66;100.00;101149.56;5000663;28;20097;-81
2022/10/26 00:58:54;;;;;;;8.60;3.25;;;;;;;10.73;100.00;101152.41;4994748;28;20735;-77
2022/10/26 01:01:19;;;;;;;15.05;4.00;;;;;;;10.60;100.00;101144.97;4995321;28;20527;-77
2022/10/26 01:03:46;;;;;;;7.10;3.75;;;;;;;10.63;100.00;101149.88;4973063;28;20026;-80
2022/10/26 01:06:13;;;;;;;7.63;3.45;;;;;;;10.81;100.00;101145.50;4984848;28;20792;-79
2022/10/26 01:08:40;;;;;;;7.95;3.50;;;;;;;10.88;100.00;101145.72;4989571;28;20030;-77
2022/10/26 01:11:05;;;;;;;13.95;5.28;;;;;;;10.80;100.00;101149.06;4998533;28;20040;-77
2022/10/26 01:13:34;;;;;;;9.20;4.43;;;;;;;10.85;100.00;101146.00;4989496;28;20030;-81
2022/10/26 01:16:24;;;;;;;7.10;3.67;;;;;;;10.80;100.00;101143.06;4985979;28;20043;-76
2022/10/26 01:18:53;;;;;;;12.85;3.58;;;;;;;10.86;100.00;101135.47;4984958;28;20033;-82
2022/10/26 01:21:36;;;;;;;15.05;3.90;;;;;;;10.82;100.00;101128.97;4994561;28;20515;-81
2022/10/26 01:24:39;;;;;;;10.32;3.05;;;;;;;11.03;100.00;101135.63;5005102;28;20074;-80
2022/10/26 01:27:33;;;;;;;8.88;3.00;;;;;;;10.99;100.00;101129.91;4978995;28;20077;-76
2022/10/26 01:30:26;;;;;;;8.15;2.90;;;;;;;10.99;100.00;101131.72;5001225;28;20145;-78
2022/10/26 01:33:26;;;;;;;13.93;3.25;;;;;;;11.12;100.00;101128.72;4973433;28;21094;-83
2022/10/26 01:36:00;;;;;;;12.85;3.03;;;;;;;11.09;100.00;101117.69;4989132;28;20038;-81
2022/10/26 01:38:31;;;;;;;13.50;2.63;;;;;;;11.10;100.00;101119.28;4993709;28;20022;-76
2022/10/26 01:41:22;;;;;;;4.43;2.15;;;;;;;11.06;100.00;101112.78;5004181;28;20038;-81
2022/10/26 01:44:12;;;;;;;4.72;2.53;;;;;;;11.05;100.00;101107.75;5004408;28;20168;-80
2022/10/26 01:46:42;;;;;;;6.47;2.22;;;;;;;11.14;100.00;101108.63;5009167;28;20073;-78
2022/10/26 01:49:11;;;;;;;6.93;3.38;;;;;;;11.09;100.00;101102.13;4977190;28;20030;-83
2022/10/26 01:51:43;;;;;;;7.43;2.53;;;;;;;11.10;100.00;101105.50;4963547;28;20775;-76
2022/10/26 01:54:09;;;;;;;6.80;2.60;;;;;;;11.11;100.00;101101.94;4989557;28;20057;-82
2022/10/26 01:56:46;;;;;;;4.93;2.35;;;;;;;11.18;100.00;101095.19;4985798;28;20117;-79
2022/10/26 01:59:29;;;;;;;4.65;2.40;;;;;;;11.10;100.00;101093.34;4981831;28;20038;-81
2022/10/26 02:02:10;;;;;;;9.48;2.17;;;;;;;11.16;100.00;101093.72;5005652;28;20125;-77
2022/10/26 02:05:03;;;;;;;13.18;2.42;;;;;;;11.19;100.00;101089.03;4991844;28;20046;-82
2022/10/26 02:07:41;;;;;;;;;;;;;;;11.08;100.00;101078.91;5008255;28;20581;-84
2022/10/26 02:10:51;;;;;;;9.13;2.92;;;;;;;11.17;100.00;101082.34;4973928;28;19922;-80
2022/10/26 02:13:31;;;;;;;6.38;2.05;;;;;;;11.13;100.00;101081.03;5007518;28;20063;-80
2022/10/26 02:16:04;;;;;;;9.00;2.25;;;;;;;11.19;100.00;101080.41;4989002;28;20483;-79
2022/10/26 02:18:43;;;;;;;4.82;1.92;;;;;;;11.08;100.00;101077.13;4989100;28;20146;-79
2022/10/26 02:21:18;;;;;;;12.75;2.78;;;;;;;11.03;100.00;101070.75;4967489;28;20046;-81
2022/10/26 02:23:46;;;;;;;7.25;1.95;;;;;;;11.17;100.00;101077.16;4992025;28;20038;-83
2022/10/26 02:26:15;;;;;;;9.80;1.90;;;;;;;11.22;100.00;101069.72;4990345;28;20442;-80
2022/10/26 02:28:46;;;;;;;9.70;1.60;;;;;;;11.14;100.00;101083.47;5010297;28;20038;-81
2022/10/26 02:31:13;;;;;;;5.28;2.13;;;;;;;11.26;100.00;101073.63;4987088;28;20046;-83
2022/10/26 02:33:46;;;;;;;9.18;2.80;;;;;;;11.27;100.00;101068.31;4973529;28;20055;-83
2022/10/26 02:36:15;;;;;;;7.72;2.25;;;;;;;11.28;100.00;101063.91;4988540;28;20042;-78
2022/10/26 02:38:42;;;;;;;9.75;2.30;;;;;;;11.24;100.00;101062.59;5008012;28;20045;-77
2022/10/26 02:41:11;;;;;;;7.45;1.95;;;;;;;11.30;100.00;101061.97;5007811;28;20487;-82
2022/10/26 02:43:43;;;;;;;10.70;2.33;;;;;;;11.26;100.00;101060.66;4988272;28;20387;-82
2022/10/26 02:46:13;;;;;;;9.32;1.90;;;;;;;11.40;100.00;101061.88;4985113;28;20068;-81
2022/10/26 02:48:39;;;;;;;4.35;2.25;;;;;;;11.40;100.00;101052.31;4980436;28;20049;-82
2022/10/26 02:51:17;;;;;;;8.65;1.92;;;;;;;11.32;100.00;101051.44;4998601;28;20125;-79
2022/10/26 02:54:22;;;;;;;7.60;2.38;;;;;;;11.28;100.00;101049.19;4986742;28;20052;-81
2022/10/26 02:56:56;;;;;;;7.40;2.42;;;;;;;11.39;100.00;101037.69;4959300;28;20099;-79
2022/10/26 02:59:25;;;;;;;10.15;2.78;;;;;;;11.36;100.00;101040.63;4988790;28;20057;-78
2022/10/26 03:01:52;;;;;;;5.35;2.20;;;;;;;11.29;100.00;101047.38;5007466;28;20494;-80
2022/10/26 03:04:17;;;;;;;10.63;2.28;;;;;;;11.44;100.00;101039.84;4972460;28;20030;-82
2022/10/26 03:06:52;;;;;;;6.43;2.10;;;;;;;11.45;100.00;101039.69;5006973;28;20099;-78
2022/10/26 03:09:17;;;;;;;10.52;2.65;;;;;;;11.42;100.00;101039.97;4974978;28;20034;-81
2022/10/26 03:11:42;;;;;;;4.65;2.58;;;;;;;11.39;100.00;101048.06;4984883;28;20430;-77
2022/10/26 03:14:08;;;;;;;7.97;2.53;;;;;;;11.42;100.00;101031.38;4984286;28;20088;-80
2022/10/26 03:16:33;;;;;;;6.78;2.38;;;;;;;11.45;100.00;101034.50;5001264;28;20037;-81
2022/10/26 03:18:59;;;;;;;8.85;2.30;;;;;;;11.47;100.00;101029.13;5003164;28;20034;-78
2022/10/26 03:21:24;;;;;;;5.40;1.90;;;;;;;11.56;100.00;101030.78;5003447;28;20038;-79
2022/10/26 03:23:50;;;;;;;7.10;2.08;;;;;;;11.57;100.00;101036.81;4993640;28;20057;-78
2022/10/26 03:26:16;;;;;;;5.53;2.30;;;;;;;11.56;100.00;101037.75;4984866;28;20041;-81
2022/10/26 03:28:41;;;;;;;9.77;4.13;;;;;;;11.58;100.00;101030.63;4988769;28;20030;-79
2022/10/26 03:31:07;;;;;;;3.97;1.77;;;;;;;11.65;100.00;101029.03;4989071;28;20100;-80
2022/10/26 03:33:32;;;;;;;5.03;1.75;;;;;;;11.63;100.00;101026.59;4988582;28;20047;-83
2022/10/26 03:35:59;;;;;;;10.27;3.13;;;;;;;11.66;100.00;101026.28;4985012;28;20042;-78
2022/10/26 03:38:24;;;;;;;7.00;1.85;;;;;;;11.73;100.00;101034.25;4965278;28;20471;-80
2022/10/26 03:40:50;;;;;;;5.57;1.83;;;;;;;11.73;100.00;101036.03;4988986;28;20042;-77
2022/10/26 03:43:15;;;;;;;5.60;2.58;;;;;;;11.65;100.00;101034.22;4984575;28;20049;-79
2022/10/26 03:45:41;;;;;;;5.15;2.22;;;;;;;11.76;100.00;101033.94;4974869;28;20049;-78
2022/10/26 03:48:06;;;;;;;5.55;2.08;;;;;;;11.77;100.00;101038.19;4983498;28;20084;-79
2022/10/26 03:50:32;;;;;;;6.10;2.22;;;;;;;11.66;100.00;101031.47;5005428;28;20807;-80
2022/10/26 03:52:57;;;;;;;8.05;2.38;;;;;;;11.64;100.00;101032.59;4990235;28;20037;-77
2022/10/26 03:55:23;;;;;;;6.38;2.33;;;;;;;11.86;100.00;101031.19;5007452;28;20040;-81
2022/10/26 03:57:48;;;;;;;7.43;1.88;;;;;;;11.88;100.00;101031.84;5006560;28;20084;-80
2022/10/26 04:00:16;;;;;;;5.43;2.08;;;;;;;11.87;100.00;101033.66;5005421;28;20034;-77
2022/10/26 04:02:46;;;;;;;9.52;2.28;;;;;;;11.91;100.00;101028.19;5004993;28;20060;-81
2022/10/26 04:05:13;;;;;;;6.15;2.28;;;;;;;11.81;100.00;101033.47;4992381;28;20030;-78
2022/10/26 04:07:38;;;;;;;6.03;2.55;;;;;;;11.89;100.00;101033.50;4987903;28;20045;-78
2022/10/26 04:10:05;;;;;;;4.35;2.60;;;;;;;11.92;100.00;101033.19;4987010;28;20038;-77
2022/10/26 04:12:30;;;;;;;6.57;1.98;;;;;;;11.98;100.00;101031.75;5001577;28;20034;-78
2022/10/26 04:14:58;;;;;;;6.43;1.88;;;;;;;12.02;100.00;101025.28;4992708;28;20059;-80
2022/10/26 04:17:24;;;;;;;5.10;2.30;;;;;;;11.93;100.00;101032.22;4989316;28;20540;-83
2022/10/26 04:19:49;;;;;;;9.65;2.30;;;;;;;11.96;100.00;101033.69;4973770;28;20031;-78
2022/10/26 04:22:15;;;;;;;12.50;2.28;;;;;;;11.80;100.00;101035.25;4996110;28;20030;-78
2022/10/26 04:24:40;;;;;;;7.05;2.33;;;;;;;11.87;100.00;101036.25;4977037;28;20583;-81
2022/10/26 04:27:06;;;;;;;8.30;2.10;;;;;;;11.94;100.00;101030.44;4989711;28;20460;-81
2022/10/26 04:29:31;;;;;;;7.55;2.30;;;;;;;11.94;100.00;101033.03;4988215;28;20056;-79
2022/10/26 04:31:57;;;;;;;7.22;2.17;;;;;;;11.92;100.00;101038.38;4992380;28;20034;-80
2022/10/26 04:34:22;;;;;;;6.68;2.38;;;;;;;11.96;100.00;101041.47;5005286;28;20034;-79
2022/10/26 04:36:48;;;;;;;7.53;2.38;;;;;;;11.92;100.00;101034.97;4995674;28;20026;-81
2022/10/26 04:39:13;;;;;;;7.32;2.22;;;;;;;11.84;100.00;101036.56;5007324;28;20030;-77
2022/10/26 04:41:39;;;;;;;7.05;2.13;;;;;;;11.87;100.00;101035.44;4973555;28;20065;-79
2022/10/26 04:44:04;;;;;;;9.68;2.20;;;;;;;11.91;100.00;101036.78;5005941;28;20030;-78
2022/10/26 04:46:29;;;;;;;10.02;2.38;;;;;;;11.81;100.00;101042.09;5006870;28;20030;-77
2022/10/26 04:48:55;;;;;;;9.57;2.63;;;;;;;11.92;100.00;101033.19;5003730;28;20487;-76
2022/10/26 04:51:20;;;;;;;9.82;2.97;;;;;;;11.95;100.00;101035.47;5005329;28;20045;-79
2022/10/26 04:53:46;;;;;;;9.15;2.30;;;;;;;12.11;100.00;101031.28;4989692;28;20081;-78
2022/10/26 04:56:11;;;;;;;5.25;1.85;;;;;;;12.06;100.00;101023.97;4987049;28;20495;-80
2022/10/26 04:58:37;;;;;;;8.77;2.40;;;;;;;12.12;100.00;101027.72;4996611;28;20484;-79
2022/10/26 05:01:02;;;;;;;6.40;2.42;;;;;;;12.16;100.00;101031.63;4982165;28;20522;-82
2022/10/26 05:03:28;;;;;;;8.18;2.13;;;;;;;11.99;100.00;101033.38;4987569;28;20038;-78
2022/10/26 05:05:57;;;;;;;11.07;2.17;;;;;;;12.00;100.00;101032.41;4991289;28;20044;-81
2022/10/26 05:08:22;;;;;;;11.23;2.17;;;;;;;12.08;100.00;101030.63;4995921;28;20129;-79
2022/10/26 05:10:49;;;;;;;11.52;2.33;;;;;;;11.98;100.00;101029.13;4984685;28;20034;-80
2022/10/26 05:13:15;;;;;;;11.55;2.50;;;;;;;12.03;100.00;101032.09;5001867;28;20111;-79
2022/10/26 05:15:40;;;;;;;8.27;2.42;;;;;;;12.07;100.00;101026.44;4998238;28;20050;-78
2022/10/26 05:18:07;;;;;;;6.80;2.50;;;;;;;12.08;100.00;101030.63;5006706;28;20061;-80
2022/10/26 05:20:34;;;;;;;10.23;2.60;;;;;;;12.15;100.00;101028.22;5005603;28;20499;-82
2022/10/26 05:23:02;;;;;;;13.00;3.00;;;;;;;12.02;100.00;101031.28;4985547;28;20057;-79
2022/10/26 05:25:30;;;;;;;6.07;2.28;;;;;;;12.17;100.00;101028.06;4997524;28;20148;-79
2022/10/26 05:27:59;;;;;;;6.82;2.22;;;;;;;12.14;100.00;101023.97;4985677;28;20160;-77
2022/10/26 05:30:25;;;;;;;8.70;2.78;;;;;;;12.10;100.00;101025.28;5002124;28;20161;-79
2022/10/26 05:32:58;;;;;;;9.80;3.28;;;;;;;12.17;100.00;101025.47;4982988;28;20980;-78
2022/10/26 05:35:25;;;;;;;8.68;2.60;;;;;;;12.14;100.00;101029.19;5000502;28;20034;-78
2022/10/26 05:37:51;;;;;;;8.20;3.60;;;;;;;12.21;100.00;101024.97;4990746;28;20120;-77
2022/10/26 05:40:17;;;;;;;9.15;2.90;;;;;;;12.14;100.00;101026.56;5009218;28;20041;-79
2022/10/26 05:42:43;;;;;;;15.02;3.75;;;;;;;12.14;100.00;101030.97;5006701;28;20038;-77
2022/10/26 05:45:08;;;;;;;8.23;2.30;;;;;;;12.24;100.00;101031.63;4989596;28;20119;-79
2022/10/26 05:47:41;;;;;;;9.57;2.90;;;;;;;12.26;100.00;101034.88;5008840;28;20518;-77
2022/10/26 05:50:08;;;;;;;8.80;2.33;;;;;;;12.29;100.00;101029.34;4970356;28;20048;-82
2022/10/26 05:52:45;;;;;;;8.43;2.88;;;;;;;12.34;100.00;101032.28;4976564;28;20026;-80
2022/10/26 05:55:13;;;;;;;10.60;2.88;;;;;;;12.25;100.00;101028.06;4973879;28;20484;-81
2022/10/26 05:57:39;;;;;;;5.40;2.58;;;;;;;12.31;100.00;101026.59;5005273;28;20064;-78
2022/10/26 06:00:16;;;;;;;12.55;3.42;;;;;;;12.32;100.00;101017.81;4980703;28;20482;-79
2022/10/26 06:03:00;;;;;;;7.65;2.67;;;;;;;12.28;100.00;101022.53;4994500;28;20398;-81
2022/10/26 06:05:28;;;;;;;9.95;2.97;;;;;;;12.31;100.00;101034.41;4990469;28;20042;-79
2022/10/26 06:07:54;;;;;;;8.57;3.85;;;;;;;12.20;100.00;101038.94;4992851;28;20037;-77
2022/10/26 06:10:19;;;;;;;8.80;3.15;;;;;;;12.24;100.00;101032.47;4989098;28;20038;-78
2022/10/26 06:12:45;;;;;;;8.68;4.32;;;;;;;12.23;100.00;101036.00;4989506;28;20030;-79
2022/10/26 06:15:19;;;;;;;10.10;3.50;;;;;;;12.18;100.00;101040.06;5004703;28;20643;-80
2022/10/26 06:18:07;;;;;;;8.40;3.08;;;;;;;12.38;100.00;101040.59;4994547;28;20483;-79
2022/10/26 06:20:54;;;;;;;9.68;3.10;;;;;;;12.32;100.00;101036.00;5009492;28;20064;-79
2022/10/26 06:23:41;;;;;;;12.15;3.92;;;;;;;12.43;100.00;101040.91;4995474;28;20026;-79
2022/10/26 06:26:35;;;;;;;18.92;3.20;;;;;;;12.41;100.00;101035.88;5007631;28;20707;-80
2022/10/26 06:29:21;;;;;;;9.07;2.72;;;;;;;12.34;100.00;101055.69;4987074;28;20133;-82
2022/10/26 06:31:47;;;;;;;10.57;3.22;;;;;;;12.29;100.00;101046.75;4985662;28;20038;-82
2022/10/26 06:34:19;;;;;;;8.75;2.83;;;;;;;12.39;100.00;101050.81;4992513;28;20413;-80
2022/10/26 06:36:46;;;;;;;10.70;3.03;;;;;;;12.39;100.00;101045.59;5009435;28;20132;-79
2022/10/26 06:39:14;;;;;;;11.38;2.90;;;;;;;12.46;100.00;101049.19;4990137;28;20042;-80
2022/10/26 06:41:39;;;;;;;13.55;3.53;;;;;;;12.36;100.00;101045.16;4975954;28;20482;-78
2022/10/26 06:44:05;;;;;;;9.70;3.22;;;;;;;12.34;100.00;101053.09;4989283;28;20036;-83
2022/10/26 06:46:45;;;;;;;14.60;3.40;;;;;;;12.35;100.00;101048.69;4987230;28;20038;-79
2022/10/26 06:49:33;;;;;;;12.15;2.80;;;;;;;12.30;100.00;101053.56;4985167;28;20030;-79
2022/10/26 06:52:01;;;;;;;10.70;3.05;;;;;;;12.33;100.00;101063.66;4975445;28;20034;-79
2022/10/26 06:54:50;;;;;;;13.52;2.97;;;;;;;12.24;100.00;101066.25;5011001;28;20038;-78
2022/10/26 06:57:17;;;;;;;9.20;2.83;;;;;;;12.29;100.00;101064.94;4984636;28;20026;-79
2022/10/26 06:59:49;;;;;;;8.60;2.80;;;;;;;12.30;100.00;101066.56;4993065;28;20047;-78
2022/10/26 07:02:15;;;;;;;5.47;2.50;;;;;;;12.24;100.00;101081.84;4977082;28;20077;-79
2022/10/26 07:04:42;;;;;;;8.13;2.40;;;;;;;12.33;100.00;101077.47;4986433;28;20537;-80
2022/10/26 07:07:16;;;;;;;7.00;2.40;;;;;;;12.44;100.00;101073.75;4997317;28;20041;-77
2022/10/26 07:09:42;;;;;;;10.40;2.35;;;;;;;12.42;100.00;101070.50;4982808;28;20084;-79
2022/10/26 07:12:07;;;;;;;11.68;2.28;;;;;;;12.53;100.00;101064.97;4987244;28;20476;-79
2022/10/26 07:14:33;;;;;;;6.50;2.10;;;;;;;12.73;100.00;101067.25;4988591;28;20058;-80
2022/10/26 07:16:59;;;;;;;17.33;2.10;;;;;;;12.63;100.00;101059.59;4989788;28;20515;-79
2022/10/26 07:19:25;;;;;;;11.70;2.30;;;;;;;12.71;100.00;101067.41;5007755;28;20080;-77
2022/10/26 07:21:50;;;;;;;12.90;2.25;;;;;;;12.71;100.00;101067.41;5008800;28;20111;-79
2022/10/26 07:24:15;;;;;;;6.95;2.10;;;;;;;12.68;100.00;101082.50;4993356;28;20125;-78
2022/10/26 07:26:41;;;;;;;7.30;2.10;;;;;;;12.76;100.00;101082.53;4987418;28;20030;-80
2022/10/26 07:29:06;;;;;;;11.32;3.05;;;;;;;12.90;100.00;101075.84;4989332;28;20038;-80
2022/10/26 07:31:32;;;;;;;25.73;10.88;;;;;;;12.97;100.00;101076.81;5004697;28;20029;-78
2022/10/26 07:33:57;;;;;;;7.28;2.90;;;;;;;13.03;100.00;101076.16;5001271;28;20997;-79
2022/10/26 07:36:23;;;;;;;4.95;1.73;;;;;;;13.05;100.00;101066.38;4987972;28;20069;-79
2022/10/26 07:38:52;;;;;;;4.80;1.48;;;;;;;13.23;100.00;101072.22;4983112;28;20030;-78
2022/10/26 07:41:18;;;;;;;3.38;1.40;;;;;;;13.21;100.00;101073.38;4983991;28;20034;-79
2022/10/26 07:43:49;;;;;;;6.47;2.20;;;;;;;13.25;100.00;101075.47;5005893;28;20045;-78
2022/10/26 07:46:15;;;;;;;8.85;1.67;;;;;;;13.41;100.00;101071.19;4985755;28;20048;-79
2022/10/26 07:48:41;;;;;;;3.22;1.77;;;;;;;13.55;100.00;101075.72;4970754;28;20038;-78
2022/10/26 07:51:07;;;;;;;7.28;1.55;;;;;;;13.57;100.00;101076.38;4973827;28;20041;-78
2022/10/26 07:53:32;;;;;;;5.68;1.38;;;;;;;13.66;100.00;101074.56;4984188;28;20077;-79
2022/10/26 07:55:57;;;;;;;11.13;1.60;;;;;;;13.92;98.37;101074.25;4983087;28;20170;-81
2022/10/26 07:58:25;;;;;;;3.13;1.13;;;;;;;14.08;96.61;101075.16;4990341;28;20026;-78
2022/10/26 08:00:54;;;;;;;3.85;1.13;;;;;;;14.69;93.78;101080.44;4991776;28;20052;-77
2022/10/26 08:03:20;;;;;;;4.72;1.10;;;;;;;15.20;89.50;101083.25;4986054;28;20506;-78
2022/10/26 08:05:46;;;;;;;4.25;1.10;;;;;;;15.61;87.24;101080.16;5001220;28;20034;-78
2022/10/26 08:08:12;;;;;;;5.15;1.10;;;;;;;16.14;84.19;101090.44;4976904;28;20033;-80
2022/10/26 08:10:43;;;;;;;5.30;1.40;;;;;;;16.55;81.67;101110.75;4981069;28;20515;-78
2022/10/26 08:13:09;;;;;;;4.43;1.00;;;;;;;16.75;79.48;101105.69;4995314;28;20739;-76
2022/10/26 08:15:34;;;;;;;11.35;1.70;;;;;;;17.11;77.50;101104.78;5003466;28;20034;-79
2022/10/26 08:18:00;;;;;;;4.68;0.85;;;;;;;17.44;76.87;101107.63;4984835;28;20797;-77
2022/10/26 08:20:25;;;;;;;1.63;0.70;;;;;;;17.53;74.90;101113.47;5002085;28;20518;-77
2022/10/26 08:22:51;;;;;;;3.85;1.50;;;;;;;17.28;75.64;101102.66;5003254;28;20041;-83
2022/10/26 08:25:17;;;;;;;7.93;1.05;;;;;;;17.21;75.63;101100.00;5006953;28;20503;-83
2022/10/26 08:27:43;;;;;;;6.32;1.83;;;;;;;17.35;75.27;101094.84;4987387;28;20820;-82
2022/10/26 08:30:08;;;;;;;4.72;1.05;;;;;;;17.41;75.54;101097.50;4999210;28;20049;-81
2022/10/26 08:32:34;;;;;;;5.38;1.30;;;;;;;17.59;74.94;101096.97;4989094;28;20044;-79
2022/10/26 08:34:59;;;;;;;7.18;0.90;;;;;;;17.98;74.09;101100.78;4987324;28;20399;-78
2022/10/26 08:37:26;;;;;;;3.72;1.30;;;;;;;18.28;72.80;101103.06;4969416;28;20038;-79
2022/10/26 08:39:51;;;;;;;4.18;0.85;;;;;;;18.10;73.19;101111.50;5009673;28;20708;-79
2022/10/26 08:42:45;;;;;;;2.72;0.73;;;;;;;18.03;73.12;101137.72;5002353;28;20033;-78
2022/10/26 08:45:22;;;;;;;5.30;1.35;;;;;;;18.09;72.50;101144.81;4972112;28;20046;-80
2022/10/26 08:47:54;;;;;;;6.57;0.95;;;;;;;18.36;72.64;101138.81;4985813;28;20037;-77
2022/10/26 08:50:34;;;;;;;4.20;1.17;;;;;;;18.34;71.83;101125.88;4996409;28;20120;-79
2022/10/26 08:53:11;;;;;;;7.07;1.05;;;;;;;18.21;72.53;101118.78;5000631;28;20041;-80
2022/10/26 08:55:52;;;;;;;5.43;1.00;;;;;;;18.24;73.26;101135.97;5002350;28;20048;-80
2022/10/26 08:58:24;;;;;;;9.15;1.50;;;;;;;18.18;73.97;101155.16;5004091;28;20380;-80
2022/10/26 09:00:51;;;;;;;6.20;0.95;;;;;;;17.92;74.76;101148.78;4979041;28;20033;-79
2022/10/26 09:03:18;;;;;;;5.95;1.50;;;;;;;17.44;76.96;101151.34;4990811;28;20030;-79
2022/10/26 09:06:14;;;;;;;4.75;1.20;;;;;;;17.41;77.90;101156.97;4985957;28;20047;-78
2022/10/26 09:08:55;;;;;;;3.67;1.00;;;;;;;17.11;78.89;101160.59;4995699;28;20363;-79
2022/10/26 09:11:48;;;;;;;10.35;1.35;;;;;;;17.09;80.62;101156.56;4993436;28;20037;-79
2022/10/26 09:14:56;;;;;;;5.40;1.30;;;;;;;17.16;79.40;101161.84;4993856;28;20040;-79
2022/10/26 09:17:44;;;;;;;4.90;1.30;;;;;;;17.25;79.77;101168.56;4988489;28;20077;-79
2022/10/26 09:20:15;;;;;;;6.00;1.73;;;;;;;17.15;79.61;101155.78;4994178;28;20029;-78
2022/10/26 09:22:49;;;;;;;7.22;1.63;;;;;;;17.15;80.47;101158.41;4981051;28;20042;-79
2022/10/26 09:25:22;;;;;;;8.07;1.55;;;;;;;17.22;79.41;101161.09;4996264;28;20049;-78
2022/10/26 09:27:52;;;;;;;5.68;1.50;;;;;;;17.17;79.74;101166.91;5014555;28;20112;-83
2022/10/26 09:30:20;;;;;;;5.57;1.55;;;;;;;17.08;81.19;101181.13;4993435;28;20038;-78
2022/10/26 09:33:21;;;;;;;13.25;1.75;;;;;;;17.04;82.50;101182.50;4988995;28;20114;-78
2022/10/26 09:36:07;;;;;;;8.18;1.65;;;;;;;17.17;80.26;101187.06;4990473;28;20510;-78
2022/10/26 09:38:44;;;;;;;6.50;1.50;;;;;;;17.09;80.42;101182.75;4977718;28;20550;-79
2022/10/26 09:41:22;;;;;;;7.35;1.40;;;;;;;17.06;82.32;101188.38;4981909;28;20049;-78
2022/10/26 09:44:24;;;;;;;5.82;1.60;;;;;;;16.95;83.17;101197.53;5004059;28;20487;-78
2022/10/26 09:47:03;;;;;;;6.88;1.70;;;;;;;17.07;81.87;101198.66;4988051;28;20050;-77
2022/10/26 09:49:49;;;;;;;3.88;1.52;;;;;;;16.99;82.48;101200.59;5012842;28;20041;-78
2022/10/26 09:52:15;;;;;;;7.03;1.58;;;;;;;17.03;84.47;101194.81;4981364;28;20042;-79
2022/10/26 09:54:40;;;;;;;5.93;1.60;;;;;;;16.94;84.37;101201.19;5000212;28;20094;-79
2022/10/26 09:57:08;;;;;;;8.27;1.90;;;;;;;17.20;82.61;101199.78;4989005;28;20030;-79
2022/10/26 09:59:37;;;;;;;8.20;2.03;;;;;;;17.10;83.87;101200.91;4984410;28;20502;-77
2022/10/26 10:02:32;;;;;;;6.93;1.70;;;;;;;17.14;83.00;101214.44;5000108;28;20040;-81
2022/10/26 10:04:58;;;;;;;8.82;1.73;;;;;;;17.17;84.34;101227.16;4992842;28;20038;-79
2022/10/26 10:07:23;;;;;;;6.53;1.80;;;;;;;17.20;84.71;101224.16;5012768;28;20438;-77
2022/10/26 10:10:18;;;;;;;8.07;1.65;;;;;;;17.29;84.55;101225.66;4991858;28;20042;-78
2022/10/26 10:12:45;;;;;;;5.07;1.50;;;;;;;17.33;84.79;101228.72;5009049;28;20025;-79
2022/10/26 10:15:19;;;;;;;5.95;1.63;;;;;;;17.39;83.98;101235.81;5001865;28;20042;-78
2022/10/26 10:17:56;;;;;;;6.07;1.63;;;;;;;17.38;84.96;101236.00;5007119;28;20123;-81
2022/10/26 10:20:29;;;;;;;8.77;1.85;;;;;;;17.49;84.10;101244.13;5005217;28;20030;-78
2022/10/26 10:23:00;;;;;;;5.10;2.17;;;;;;;17.51;83.98;101244.75;4985280;28;20560;-77
2022/10/26 10:25:35;;;;;;;6.80;1.77;;;;;;;17.42;84.44;101248.53;5009160;28;20443;-78
2022/10/26 10:28:01;;;;;;;7.40;1.70;;;;;;;17.38;85.46;101249.09;4994760;28;20042;-77
2022/10/26 10:30:32;;;;;;;10.73;2.20;;;;;;;17.59;84.21;101246.41;4998597;28;20045;-78
2022/10/26 10:33:06;;;;;;;4.30;1.45;;;;;;;17.58;85.09;101260.53;4987668;28;20056;-77
2022/10/26 10:35:32;;;;;;;4.32;1.60;;;;;;;17.40;86.63;101260.19;4987361;28;20046;-80
2022/10/26 10:37:58;;;;;;;6.10;1.42;;;;;;;17.57;85.00;101258.91;4980478;28;20085;-78
2022/10/26 10:40:26;;;;;;;4.20;1.27;;;;;;;17.66;84.31;101256.97;4990284;28;20041;-77
2022/10/26 10:43:02;;;;;;;3.42;1.55;;;;;;;17.70;83.17;101268.69;5008266;28;20099;-77
2022/10/26 10:45:29;;;;;;;6.38;2.05;;;;;;;17.57;84.81;101269.38;4994568;28;20545;-78
2022/10/26 10:48:00;;;;;;;9.43;1.63;;;;;;;17.69;83.26;101267.06;4992318;28;20202;-77
2022/10/26 10:50:27;;;;;;;3.17;1.00;;;;;;;17.81;83.39;101268.16;5001162;28;20050;-79
2022/10/26 10:52:54;;;;;;;3.53;1.65;;;;;;;17.95;83.22;101276.97;4983598;28;20030;-78
2022/10/26 10:55:21;;;;;;;4.72;1.55;;;;;;;17.78;83.85;101280.84;4986277;28;20171;-79
2022/10/26 10:57:46;;;;;;;4.72;1.52;;;;;;;17.80;83.52;101281.44;4981737;28;20034;-78
2022/10/26 11:00:12;;;;;;;4.85;1.40;;;;;;;17.94;82.55;101283.19;4983888;28;20180;-79
2022/10/26 11:03:13;;;;;;;4.57;1.25;;;;;;;17.86;83.50;101289.41;4991372;28;20317;-78
2022/10/26 11:06:17;;;;;;;3.72;1.40;;;;;;;17.94;83.04;101287.63;5006205;28;20077;-78
2022/10/26 11:09:03;;;;;;;3.10;0.90;;;;;;;17.99;82.71;101285.22;4967854;28;20125;-78
2022/10/26 11:11:31;;;;;;;8.85;1.70;;;;;;;17.98;82.67;101292.28;4993665;28;20053;-77
2022/10/26 11:14:02;;;;;;;5.40;1.10;;;;;;;18.01;82.27;101291.91;5005586;28;20042;-78
2022/10/26 11:16:33;;;;;;;3.88;1.00;;;;;;;18.04;83.56;101291.50;5004900;28;20030;-78
2022/10/26 11:19:17;;;;;;;8.95;1.88;;;;;;;18.15;81.31;101290.16;4990354;28;20054;-80
2022/10/26 11:21:47;;;;;;;4.68;1.20;;;;;;;18.17;81.73;101296.03;5003223;28;20062;-78
2022/10/26 11:24:21;;;;;;;4.43;1.10;;;;;;;18.21;82.72;101299.06;5003011;28;20133;-77
2022/10/26 11:27:30;;;;;;;5.32;1.10;;;;;;;18.23;81.85;101299.69;5002549;28;20113;-78
2022/10/26 11:30:17;;;;;;;2.75;1.10;;;;;;;18.19;83.14;101308.97;4928430;29;20063;-77
2022/10/26 11:32:49;;;;;;;11.52;2.85;;;;;;;18.13;83.34;101304.50;5008862;28;20399;-78
2022/10/26 11:35:38;;;;;;;3.57;1.10;;;;;;;18.08;82.61;101298.03;4992791;28;20499;-77
2022/10/26 11:38:15;;;;;;;4.80;1.10;;;;;;;18.14;83.13;101293.81;4993253;28;20483;-77